LSMP

Details ICAO LSMP
Name Payerne
Region Switzerland
Timezone Europe/Zurich (UTC+2.0)
Plans Departing 16
Arriving 23
Stats Elevation 1,465 ft / 447 m (AMSL)
Location 46.843204° 6.915057°
Runways 1
Magnetic Variation 1.990° E
Sunrise 2018-05-27 03:46:59 UTC / 2018-05-27 05:46:59 Local
Sunset 2018-05-27 19:14:53 UTC / 2018-05-27 21:14:53 Local
Advertisement - Login to hide

Runways

ID Width Length Bearing (true) Bearing (mag) Surface Threshold Offset Overrun Length
05 131 ft / 40 m 9,365 ft / 2,854 m 48.29° 46.30° Asphalt 1,365 ft / 416 m 610 ft / 186 m
23 131 ft / 40 m 9,365 ft / 2,854 m 228.31° 226.32° Asphalt 1,358 ft / 414 m 640 ft / 195 m

Approach Navaids

Runway Type Ident Frequency Range Bearing (true) Bearing (mag) Slope Elevation
23 Localiser IPY 109.30 MHz 18 nm / 33 km 228.53° 226.54° - 1,465 ft / 447 m (AMSL)
23 Glidescope IPY 109.30 MHz 10 nm / 19 km 228.30° 226.31° 3.70° 1,456 ft / 444 m (AMSL)
23 DME IPY 109.30 MHz 18 nm / 33 km - - - 1,456 ft / 444 m (AMSL)

Map

Weather


0- 5 10 15 20 25 30 35+ Temperature / ° C

Clouds and Precipitation
Forecast for 2018-05-27 00:00 UTC. Updated 4 hours ago

Ground ~20,000 ft ~40,000 ft Winds

METAR

LSMP 270250Z AUTO 16002KT 9999NDV FEW180 10/08 Q1019 RMK

TAF

Not found

Frequencies

Tower 128.67 MHz TWR
Approach 136.35 MHz ARR
Warning: Do not use this data for real-world aviation or navigation. No guarantee of current accuracy is given.